• Join FlightAware (Why Join?)
  • Login
  • US Flag 
07:45PM EDT


 

Airport Tracker/Info


-or-


 

Live Flight TrackerFlight Track Log ✈ ASQ6115 ✈ 14-Jul-2013 ✈ KCLE - KLGA

Flight Track Log - Related Links

Times and Time Zones

All times are in EDT time to prevent confusion due to time zone crossing. See the ASQ6115 flight status page for this flight to view local times or setup timezone preferences in your user account.

Time Position Orientation Groundspeed Altitude Reporting Facility
EDT Latitude Longitude Course Direction KTS MPH feet Rate Location/Type
08:45AM 41.4258 -81.8292 90° East 191 220 1,900  Level Cleveland Center
08:46AM 41.4783 -81.7969 25° Northeast 234 269 3,100 1,740 Climbing Cleveland Center
08:47AM 41.5350 -81.7425 36° Northeast 263 303 5,300 2,100 Climbing Cleveland Center
08:48AM 41.6932 -81.5568 37° Northeast  Level FlightAware Approximate
08:48AM 41.5942 -81.6769 40° Northeast 278 320 7,400  Level Cleveland Center
08:49AM 41.7671 -81.4830 37° Northeast  Level FlightAware Approximate
08:49AM 41.6572 -81.6114 38° Northeast 278 320 9,600  Level Cleveland Center
08:50AM 41.8333 -81.4039 90° East  Level FlightAware Approximate
08:50AM 41.7289 -81.5375 38° Northeast 306 352 10,600  Level Cleveland Center
08:51AM 41.7775 -81.4322 58° Northeast 319 367 11,400 960 Climbing Cleveland Center
08:52AM 41.7700 -81.3181 95° East 320 368 12,600 1,200 Climbing Cleveland Center
08:53AM 41.7478 -81.1842 102° East 341 392 13,800 1,200 Climbing Cleveland Center
08:54AM 41.7275 -81.0533 102° East 357 411 15,000 1,200 Climbing Cleveland Center
08:55AM 41.7053 -80.9225 103° East 362 417 16,200 1,140 Climbing Cleveland Center
08:56AM 41.6825 -80.7861 103° East 362 417 17,300 900 Climbing Cleveland Center
08:57AM 41.6578 -80.6414 103° East 362 417 18,100 900 Climbing Cleveland Center
08:58AM 41.6347 -80.5053 103° East 362 417 19,100 1,020 Climbing Cleveland Center
08:59AM 41.6003 -80.3762 104° East  Level FlightAware Approximate
09:00AM 41.5925 -80.2306 104° East 377 434 21,300  Level Cleveland Center
09:01AM 41.5669 -80.0892 104° East 377 434 22,300 1,020 Climbing Cleveland Center
09:02AM 41.5433 -79.9533 103° East 377 434 23,400 1,080 Climbing Cleveland Center
09:03AM 41.5197 -79.8178 103° East 371 427 24,500 900 Climbing Cleveland Center
09:04AM 41.4958 -79.6794 103° East 376 433 25,300 660 Climbing Cleveland Center
09:05AM 41.4694 -79.5356 104° East 376 433 25,900 600 Climbing Cleveland Center
09:06AM 41.4431 -79.3892 103° East 390 449 26,500 540 Climbing Cleveland Center
09:07AM 41.4164 -79.2403 103° East 397 457 27,000 540 Climbing Cleveland Center
09:08AM 41.3894 -79.0914 104° East 408 470 27,600 600 Climbing Cleveland Center
09:09AM 41.3644 -78.9369 102° East 414 476 28,200 600 Climbing Cleveland Center
09:10AM 41.3372 -78.7828 103° East 419 482 28,800 360 Climbing Cleveland Center
09:11AM 41.3075 -78.6289 104° East 419 482 29,000 60 Climbing Cleveland Center
09:12AM 41.2775 -78.4694 104° East 430 495 29,000  Level Cleveland Center
09:13AM 41.2475 -78.3075 104° East 441 507 29,000  Level Cleveland Center
09:13AM 41.2258 -78.2086 106° East 451 519 29,000  Level New York Center
09:14AM 41.2008 -78.0406 101° East 456 525 29,000  Level New York Center
09:15AM 41.1800 -77.8700 99° East 461 531 29,000  Level New York Center
09:16AM 41.1586 -77.7022 100° East 461 531 29,000  Level New York Center
09:17AM 41.1392 -77.5350 99° East 456 525 29,000 -240 Level New York Center
09:18AM 41.1122 -77.3478 101° East 461 531 28,600 -960 Descending New York Center
09:19AM 41.0903 -77.1775 100° East 461 531 27,100 -1,800 Descending New York Center
09:20AM 41.0661 -77.0047 100° East 466 536 25,100 -1,980 Descending New York Center
09:21AM 41.0433 -76.8375 100° East 471 542 23,200 -1,920 Descending New York Center
09:22AM 41.0222 -76.6786 100° East 459 528 21,200 -1,800 Descending New York Center
09:23AM 40.9883 -76.5244 106° East 448 516 19,700 -1,380 Descending New York Center
09:24AM 40.9517 -76.3758 108° East 429 494 18,500 -840 Descending New York Center
09:25AM 40.9169 -76.2247 107° East 429 494 18,000 -900 Descending New York Center
09:26AM 40.8819 -76.0819 108° East 423 487 16,700 -1,680 Descending New York Center
09:28AM 40.8362 -75.9254 114° Southeast  Level FlightAware Approximate
09:28AM 40.8164 -75.8161 114° Southeast 399 459 13,000  Level New York Center
09:29AM 40.7767 -75.6681 109° East 394 453 12,800 -600 Descending New York Center
09:30AM 40.7400 -75.5475 112° Southeast 394 453 11,800 -1,020 Descending New York Center
09:31AM 40.6992 -75.4189 113° Southeast 388 447 10,800 -900 Descending New York Center
09:32AM 40.6561 -75.2928 114° Southeast 380 437 10,000 -420 Descending New York Center
09:33AM 40.6156 -75.1561 111° Southeast 375 432 10,000  Level New York Center
09:34AM 40.5744 -75.0278 113° Southeast 369 425 10,000  Level New York Center
09:35AM 40.5408 -74.9167 112° Southeast 369 425 10,000  Level New York Center
09:36AM 40.5167 -74.8333 111° Southeast 326 375 10,000  Level New York TRACON
09:37AM 40.4833 -74.7333 114° Southeast 302 348 10,000  Level New York TRACON
09:38AM 40.4500 -74.6167 111° Southeast 307 353 10,000  Level New York TRACON
09:39AM 40.4333 -74.5167 102° East 306 352 10,100 -300 Climbing New York TRACON
09:40AM 40.4500 -74.4167 78° East 303 349 9,400 -1,020 Descending New York TRACON
09:41AM 40.4333 -74.3167 102° East 281 323 8,200 -780 Descending New York TRACON
09:42AM 40.4500 -74.2167 78° East 287 330 8,000 -420 Descending New York TRACON
09:43AM 40.5167 -74.1500 37° Northeast 272 313 7,400 -1,320 Descending New York TRACON
09:44AM 40.5833 -74.0833 37° Northeast 275 316 5,300 -1,620 Descending New York TRACON
09:45AM 40.6333 -74.0333 37° Northeast 271 312 4,200 -600 Descending New York TRACON
09:46AM 40.7000 -73.9667 37° Northeast 270 311 4,100 -120 Descending New York TRACON
09:47AM 40.7333 -73.8833 62° Northeast 276 318 4,000 -60 Descending New York TRACON
09:48AM 40.7833 -73.8000 52° Northeast 270 311 4,000 -480 Level New York TRACON
09:49AM 40.8167 -73.7167 62° Northeast 270 311 3,100 -480 Descending New York TRACON
09:50AM 40.8833 -73.6833 21° North 255 293 3,100 -60 Level New York TRACON
09:51AM 40.9333 -73.6667 14° North 214 246 3,000 -540 Descending New York TRACON
09:52AM 40.9167 -73.7333 252° West 173 199 2,100 -900 Descending New York TRACON